sensor_id;sensor_type;location;lat;lon;timestamp;P1;durP1;ratioP1;P2;durP2;ratioP2
21862;SDS011;11096;51.338;12.524;2023-04-06T00:00:49;7.93;;;4.90;;
21862;SDS011;11096;51.338;12.524;2023-04-06T00:03:15;11.65;;;4.72;;
21862;SDS011;11096;51.338;12.524;2023-04-06T00:05:41;6.97;;;4.75;;
21862;SDS011;11096;51.338;12.524;2023-04-06T00:08:06;9.20;;;4.75;;
21862;SDS011;11096;51.338;12.524;2023-04-06T00:10:32;8.15;;;5.38;;
21862;SDS011;11096;51.338;12.524;2023-04-06T00:12:58;8.63;;;4.68;;
21862;SDS011;11096;51.338;12.524;2023-04-06T00:15:24;9.07;;;4.70;;
21862;SDS011;11096;51.338;12.524;2023-04-06T00:17:50;10.48;;;4.55;;
21862;SDS011;11096;51.338;12.524;2023-04-06T00:20:16;6.45;;;4.43;;
21862;SDS011;11096;51.338;12.524;2023-04-06T00:22:41;7.60;;;4.60;;
21862;SDS011;11096;51.338;12.524;2023-04-06T00:25:08;6.85;;;4.65;;
21862;SDS011;11096;51.338;12.524;2023-04-06T00:27:35;8.45;;;5.00;;
21862;SDS011;11096;51.338;12.524;2023-04-06T00:30:00;8.65;;;4.90;;
21862;SDS011;11096;51.338;12.524;2023-04-06T00:32:30;8.55;;;4.80;;
21862;SDS011;11096;51.338;12.524;2023-04-06T00:34:56;6.07;;;4.22;;
21862;SDS011;11096;51.338;12.524;2023-04-06T00:37:22;6.57;;;4.28;;
21862;SDS011;11096;51.338;12.524;2023-04-06T00:39:47;7.07;;;4.50;;
21862;SDS011;11096;51.338;12.524;2023-04-06T00:42:13;7.30;;;4.85;;
21862;SDS011;11096;51.338;12.524;2023-04-06T00:44:42;7.10;;;4.30;;
21862;SDS011;11096;51.338;12.524;2023-04-06T00:47:08;8.23;;;5.15;;
21862;SDS011;11096;51.338;12.524;2023-04-06T00:49:33;8.30;;;5.00;;
21862;SDS011;11096;51.338;12.524;2023-04-06T00:52:00;10.38;;;5.43;;
21862;SDS011;11096;51.338;12.524;2023-04-06T00:54:26;9.00;;;4.85;;
21862;SDS011;11096;51.338;12.524;2023-04-06T00:56:52;8.93;;;5.70;;
21862;SDS011;11096;51.338;12.524;2023-04-06T00:59:17;8.77;;;5.03;;
21862;SDS011;11096;51.338;12.524;2023-04-06T01:01:43;8.18;;;4.60;;
21862;SDS011;11096;51.338;12.524;2023-04-06T01:04:09;8.23;;;4.57;;
21862;SDS011;11096;51.338;12.524;2023-04-06T01:06:35;7.38;;;4.85;;
21862;SDS011;11096;51.338;12.524;2023-04-06T01:09:00;6.65;;;4.35;;
21862;SDS011;11096;51.338;12.524;2023-04-06T01:11:26;7.00;;;4.30;;
21862;SDS011;11096;51.338;12.524;2023-04-06T01:13:52;7.72;;;4.70;;
21862;SDS011;11096;51.338;12.524;2023-04-06T01:16:17;7.32;;;4.43;;
21862;SDS011;11096;51.338;12.524;2023-04-06T01:18:43;9.80;;;4.93;;
21862;SDS011;11096;51.338;12.524;2023-04-06T01:21:09;8.25;;;4.47;;
21862;SDS011;11096;51.338;12.524;2023-04-06T01:23:41;8.93;;;4.63;;
21862;SDS011;11096;51.338;12.524;2023-04-06T01:26:10;7.38;;;4.53;;
21862;SDS011;11096;51.338;12.524;2023-04-06T01:28:36;7.88;;;4.75;;
21862;SDS011;11096;51.338;12.524;2023-04-06T01:31:02;6.53;;;4.45;;
21862;SDS011;11096;51.338;12.524;2023-04-06T01:33:28;7.85;;;4.20;;
21862;SDS011;11096;51.338;12.524;2023-04-06T01:35:54;7.15;;;4.15;;
21862;SDS011;11096;51.338;12.524;2023-04-06T01:38:20;6.55;;;4.45;;
21862;SDS011;11096;51.338;12.524;2023-04-06T01:40:45;7.72;;;4.70;;
21862;SDS011;11096;51.338;12.524;2023-04-06T01:43:11;7.53;;;4.50;;
21862;SDS011;11096;51.338;12.524;2023-04-06T01:45:36;6.22;;;4.65;;
21862;SDS011;11096;51.338;12.524;2023-04-06T01:48:02;10.15;;;5.00;;
21862;SDS011;11096;51.338;12.524;2023-04-06T01:50:27;7.10;;;4.97;;
21862;SDS011;11096;51.338;12.524;2023-04-06T01:52:53;9.13;;;4.90;;
21862;SDS011;11096;51.338;12.524;2023-04-06T01:55:18;6.53;;;4.78;;
21862;SDS011;11096;51.338;12.524;2023-04-06T01:57:44;7.70;;;5.18;;
21862;SDS011;11096;51.338;12.524;2023-04-06T02:00:10;9.88;;;5.15;;
21862;SDS011;11096;51.338;12.524;2023-04-06T02:02:36;8.98;;;5.20;;
21862;SDS011;11096;51.338;12.524;2023-04-06T02:05:01;9.40;;;5.05;;
21862;SDS011;11096;51.338;12.524;2023-04-06T02:07:27;6.35;;;4.72;;
21862;SDS011;11096;51.338;12.524;2023-04-06T02:09:53;8.13;;;5.05;;
21862;SDS011;11096;51.338;12.524;2023-04-06T02:12:20;7.05;;;4.38;;
21862;SDS011;11096;51.338;12.524;2023-04-06T02:14:46;10.60;;;5.20;;
21862;SDS011;11096;51.338;12.524;2023-04-06T02:17:12;6.97;;;4.55;;
21862;SDS011;11096;51.338;12.524;2023-04-06T02:19:37;8.07;;;4.70;;
21862;SDS011;11096;51.338;12.524;2023-04-06T02:22:02;7.68;;;4.63;;
21862;SDS011;11096;51.338;12.524;2023-04-06T02:24:28;8.32;;;5.03;;
21862;SDS011;11096;51.338;12.524;2023-04-06T02:26:53;6.57;;;4.97;;
21862;SDS011;11096;51.338;12.524;2023-04-06T02:29:19;6.40;;;4.65;;
21862;SDS011;11096;51.338;12.524;2023-04-06T02:31:45;10.25;;;5.63;;
21862;SDS011;11096;51.338;12.524;2023-04-06T02:34:10;9.32;;;5.18;;
21862;SDS011;11096;51.338;12.524;2023-04-06T02:36:42;7.47;;;4.97;;
21862;SDS011;11096;51.338;12.524;2023-04-06T02:39:11;9.40;;;5.53;;
21862;SDS011;11096;51.338;12.524;2023-04-06T02:41:37;10.00;;;5.15;;
21862;SDS011;11096;51.338;12.524;2023-04-06T02:44:03;10.98;;;4.95;;
21862;SDS011;11096;51.338;12.524;2023-04-06T02:46:29;8.00;;;4.88;;
21862;SDS011;11096;51.338;12.524;2023-04-06T02:48:54;7.03;;;4.50;;
21862;SDS011;11096;51.338;12.524;2023-04-06T02:51:20;6.07;;;5.00;;
21862;SDS011;11096;51.338;12.524;2023-04-06T02:53:46;7.57;;;4.63;;
21862;SDS011;11096;51.338;12.524;2023-04-06T02:56:11;7.35;;;4.97;;
21862;SDS011;11096;51.338;12.524;2023-04-06T02:58:37;8.07;;;5.20;;
21862;SDS011;11096;51.338;12.524;2023-04-06T03:01:02;6.57;;;3.90;;
21862;SDS011;11096;51.338;12.524;2023-04-06T03:03:28;7.90;;;4.45;;
21862;SDS011;11096;51.338;12.524;2023-04-06T03:05:55;7.10;;;4.28;;
21862;SDS011;11096;51.338;12.524;2023-04-06T03:08:23;9.85;;;4.88;;
21862;SDS011;11096;51.338;12.524;2023-04-06T03:10:49;7.05;;;4.57;;
21862;SDS011;11096;51.338;12.524;2023-04-06T03:13:14;8.20;;;4.75;;
21862;SDS011;11096;51.338;12.524;2023-04-06T03:15:39;5.93;;;4.35;;
21862;SDS011;11096;51.338;12.524;2023-04-06T03:18:05;8.13;;;4.63;;
21862;SDS011;11096;51.338;12.524;2023-04-06T03:20:30;6.03;;;4.28;;
21862;SDS011;11096;51.338;12.524;2023-04-06T03:22:56;7.15;;;4.88;;
21862;SDS011;11096;51.338;12.524;2023-04-06T03:25:21;7.97;;;4.82;;
21862;SDS011;11096;51.338;12.524;2023-04-06T03:27:47;8.57;;;5.00;;
21862;SDS011;11096;51.338;12.524;2023-04-06T03:30:12;6.60;;;4.47;;
21862;SDS011;11096;51.338;12.524;2023-04-06T03:32:38;6.65;;;4.45;;
21862;SDS011;11096;51.338;12.524;2023-04-06T03:35:04;6.88;;;4.50;;
21862;SDS011;11096;51.338;12.524;2023-04-06T03:37:29;8.32;;;4.93;;
21862;SDS011;11096;51.338;12.524;2023-04-06T03:39:55;10.02;;;4.85;;
21862;SDS011;11096;51.338;12.524;2023-04-06T03:42:20;6.85;;;4.53;;
21862;SDS011;11096;51.338;12.524;2023-04-06T03:44:46;8.48;;;4.78;;
21862;SDS011;11096;51.338;12.524;2023-04-06T03:47:11;6.38;;;4.30;;
21862;SDS011;11096;51.338;12.524;2023-04-06T03:49:37;10.98;;;4.78;;
21862;SDS011;11096;51.338;12.524;2023-04-06T03:52:02;11.88;;;4.75;;
21862;SDS011;11096;51.338;12.524;2023-04-06T03:54:28;7.30;;;4.82;;
21862;SDS011;11096;51.338;12.524;2023-04-06T03:56:53;7.78;;;4.93;;
21862;SDS011;11096;51.338;12.524;2023-04-06T03:59:19;5.82;;;4.32;;
21862;SDS011;11096;51.338;12.524;2023-04-06T04:01:44;9.95;;;4.45;;
21862;SDS011;11096;51.338;12.524;2023-04-06T04:04:10;9.38;;;4.78;;
21862;SDS011;11096;51.338;12.524;2023-04-06T04:06:35;7.00;;;4.85;;
21862;SDS011;11096;51.338;12.524;2023-04-06T04:09:01;7.57;;;4.53;;
21862;SDS011;11096;51.338;12.524;2023-04-06T04:11:27;7.05;;;4.47;;
21862;SDS011;11096;51.338;12.524;2023-04-06T04:13:53;6.22;;;4.05;;
21862;SDS011;11096;51.338;12.524;2023-04-06T04:16:18;6.32;;;4.35;;
21862;SDS011;11096;51.338;12.524;2023-04-06T04:18:44;7.15;;;4.55;;
21862;SDS011;11096;51.338;12.524;2023-04-06T04:21:10;5.13;;;4.47;;
21862;SDS011;11096;51.338;12.524;2023-04-06T04:23:35;5.72;;;4.25;;
21862;SDS011;11096;51.338;12.524;2023-04-06T04:26:01;6.68;;;4.28;;
21862;SDS011;11096;51.338;12.524;2023-04-06T04:28:27;8.23;;;4.93;;
21862;SDS011;11096;51.338;12.524;2023-04-06T04:30:52;8.60;;;4.70;;
21862;SDS011;11096;51.338;12.524;2023-04-06T04:33:18;6.43;;;4.97;;
21862;SDS011;11096;51.338;12.524;2023-04-06T04:35:43;8.15;;;4.43;;
21862;SDS011;11096;51.338;12.524;2023-04-06T04:38:09;6.78;;;4.55;;
21862;SDS011;11096;51.338;12.524;2023-04-06T04:40:34;8.40;;;4.80;;
21862;SDS011;11096;51.338;12.524;2023-04-06T04:43:00;7.85;;;5.00;;
21862;SDS011;11096;51.338;12.524;2023-04-06T04:45:25;8.52;;;5.22;;
21862;SDS011;11096;51.338;12.524;2023-04-06T04:47:51;7.38;;;4.90;;
21862;SDS011;11096;51.338;12.524;2023-04-06T04:50:16;7.78;;;5.00;;
21862;SDS011;11096;51.338;12.524;2023-04-06T04:52:42;9.35;;;4.82;;
21862;SDS011;11096;51.338;12.524;2023-04-06T04:55:07;7.88;;;5.32;;
21862;SDS011;11096;51.338;12.524;2023-04-06T04:57:33;7.70;;;5.13;;
21862;SDS011;11096;51.338;12.524;2023-04-06T04:59:58;11.52;;;5.10;;
21862;SDS011;11096;51.338;12.524;2023-04-06T05:02:24;6.90;;;4.95;;
21862;SDS011;11096;51.338;12.524;2023-04-06T05:04:49;7.82;;;5.18;;
21862;SDS011;11096;51.338;12.524;2023-04-06T05:07:15;7.90;;;4.88;;
21862;SDS011;11096;51.338;12.524;2023-04-06T05:09:43;9.40;;;5.85;;
21862;SDS011;11096;51.338;12.524;2023-04-06T05:12:09;6.95;;;4.85;;
21862;SDS011;11096;51.338;12.524;2023-04-06T05:14:35;8.63;;;4.90;;
21862;SDS011;11096;51.338;12.524;2023-04-06T05:17:00;7.03;;;4.88;;
21862;SDS011;11096;51.338;12.524;2023-04-06T05:19:26;8.70;;;5.07;;
21862;SDS011;11096;51.338;12.524;2023-04-06T05:21:51;10.10;;;5.00;;
21862;SDS011;11096;51.338;12.524;2023-04-06T05:24:17;9.25;;;5.63;;
21862;SDS011;11096;51.338;12.524;2023-04-06T05:26:43;6.70;;;4.70;;
21862;SDS011;11096;51.338;12.524;2023-04-06T05:29:10;10.23;;;5.13;;
21862;SDS011;11096;51.338;12.524;2023-04-06T05:31:36;7.20;;;5.40;;
21862;SDS011;11096;51.338;12.524;2023-04-06T05:34:01;9.93;;;5.20;;
21862;SDS011;11096;51.338;12.524;2023-04-06T05:36:27;7.30;;;5.30;;
21862;SDS011;11096;51.338;12.524;2023-04-06T05:38:52;8.32;;;5.18;;
21862;SDS011;11096;51.338;12.524;2023-04-06T05:41:18;7.40;;;5.28;;
21862;SDS011;11096;51.338;12.524;2023-04-06T05:43:43;12.48;;;5.38;;
21862;SDS011;11096;51.338;12.524;2023-04-06T05:46:09;7.03;;;5.03;;
21862;SDS011;11096;51.338;12.524;2023-04-06T05:48:35;8.48;;;4.75;;
21862;SDS011;11096;51.338;12.524;2023-04-06T05:51:01;7.75;;;5.43;;
21862;SDS011;11096;51.338;12.524;2023-04-06T05:53:27;9.10;;;5.53;;
21862;SDS011;11096;51.338;12.524;2023-04-06T05:55:54;8.60;;;5.65;;
21862;SDS011;11096;51.338;12.524;2023-04-06T05:58:19;9.93;;;5.53;;
21862;SDS011;11096;51.338;12.524;2023-04-06T06:00:45;8.15;;;5.78;;
21862;SDS011;11096;51.338;12.524;2023-04-06T06:03:11;9.38;;;5.07;;
21862;SDS011;11096;51.338;12.524;2023-04-06T06:05:37;11.27;;;6.07;;
21862;SDS011;11096;51.338;12.524;2023-04-06T06:08:03;9.50;;;5.88;;
21862;SDS011;11096;51.338;12.524;2023-04-06T06:10:28;8.48;;;5.93;;
21862;SDS011;11096;51.338;12.524;2023-04-06T06:12:54;8.90;;;5.47;;
21862;SDS011;11096;51.338;12.524;2023-04-06T06:15:19;8.02;;;5.43;;
21862;SDS011;11096;51.338;12.524;2023-04-06T06:17:45;9.32;;;5.60;;
21862;SDS011;11096;51.338;12.524;2023-04-06T06:20:11;8.88;;;5.95;;
21862;SDS011;11096;51.338;12.524;2023-04-06T06:22:36;10.23;;;6.18;;
21862;SDS011;11096;51.338;12.524;2023-04-06T06:25:02;9.68;;;6.20;;
21862;SDS011;11096;51.338;12.524;2023-04-06T06:27:28;7.75;;;5.60;;
21862;SDS011;11096;51.338;12.524;2023-04-06T06:29:53;8.75;;;6.25;;
21862;SDS011;11096;51.338;12.524;2023-04-06T06:32:19;15.48;;;5.93;;
21862;SDS011;11096;51.338;12.524;2023-04-06T06:34:45;8.32;;;5.93;;
21862;SDS011;11096;51.338;12.524;2023-04-06T06:37:10;8.85;;;5.82;;
21862;SDS011;11096;51.338;12.524;2023-04-06T06:39:35;10.35;;;6.05;;
21862;SDS011;11096;51.338;12.524;2023-04-06T06:42:01;10.63;;;6.57;;
21862;SDS011;11096;51.338;12.524;2023-04-06T06:44:27;13.07;;;6.65;;
21862;SDS011;11096;51.338;12.524;2023-04-06T06:46:53;9.55;;;6.03;;
21862;SDS011;11096;51.338;12.524;2023-04-06T06:49:18;8.90;;;6.00;;
21862;SDS011;11096;51.338;12.524;2023-04-06T06:51:44;10.43;;;5.75;;
21862;SDS011;11096;51.338;12.524;2023-04-06T06:54:11;8.00;;;5.85;;
21862;SDS011;11096;51.338;12.524;2023-04-06T06:56:37;6.90;;;5.07;;
21862;SDS011;11096;51.338;12.524;2023-04-06T06:59:03;7.75;;;5.63;;
21862;SDS011;11096;51.338;12.524;2023-04-06T07:01:29;10.15;;;5.25;;
21862;SDS011;11096;51.338;12.524;2023-04-06T07:03:56;8.88;;;5.35;;
21862;SDS011;11096;51.338;12.524;2023-04-06T07:06:21;9.18;;;5.70;;
21862;SDS011;11096;51.338;12.524;2023-04-06T07:08:47;10.02;;;5.53;;
21862;SDS011;11096;51.338;12.524;2023-04-06T07:11:12;9.00;;;5.30;;
21862;SDS011;11096;51.338;12.524;2023-04-06T07:13:38;8.18;;;5.20;;
21862;SDS011;11096;51.338;12.524;2023-04-06T07:16:04;11.10;;;4.95;;
21862;SDS011;11096;51.338;12.524;2023-04-06T07:18:29;11.40;;;5.15;;
21862;SDS011;11096;51.338;12.524;2023-04-06T07:20:55;6.97;;;4.75;;
21862;SDS011;11096;51.338;12.524;2023-04-06T07:23:20;7.82;;;4.57;;
21862;SDS011;11096;51.338;12.524;2023-04-06T07:25:46;8.10;;;5.40;;
21862;SDS011;11096;51.338;12.524;2023-04-06T07:28:11;6.43;;;4.93;;
21862;SDS011;11096;51.338;12.524;2023-04-06T07:30:37;8.18;;;4.75;;
21862;SDS011;11096;51.338;12.524;2023-04-06T07:33:03;6.75;;;4.68;;
21862;SDS011;11096;51.338;12.524;2023-04-06T07:35:31;5.40;;;4.45;;
21862;SDS011;11096;51.338;12.524;2023-04-06T07:37:57;7.63;;;5.25;;
21862;SDS011;11096;51.338;12.524;2023-04-06T07:40:23;6.72;;;4.20;;
21862;SDS011;11096;51.338;12.524;2023-04-06T07:42:48;7.55;;;4.47;;
21862;SDS011;11096;51.338;12.524;2023-04-06T07:45:14;7.10;;;4.70;;
21862;SDS011;11096;51.338;12.524;2023-04-06T07:47:41;6.60;;;4.88;;
21862;SDS011;11096;51.338;12.524;2023-04-06T07:50:06;6.82;;;4.40;;
21862;SDS011;11096;51.338;12.524;2023-04-06T07:52:32;6.38;;;4.82;;
21862;SDS011;11096;51.338;12.524;2023-04-06T07:54:58;9.13;;;4.50;;
21862;SDS011;11096;51.338;12.524;2023-04-06T07:57:24;7.35;;;4.65;;
21862;SDS011;11096;51.338;12.524;2023-04-06T07:59:50;9.05;;;4.35;;
21862;SDS011;11096;51.338;12.524;2023-04-06T08:02:15;6.97;;;4.13;;
21862;SDS011;11096;51.338;12.524;2023-04-06T08:04:41;8.23;;;5.03;;
21862;SDS011;11096;51.338;12.524;2023-04-06T08:07:06;11.20;;;5.07;;
21862;SDS011;11096;51.338;12.524;2023-04-06T08:09:32;6.75;;;4.20;;
21862;SDS011;11096;51.338;12.524;2023-04-06T08:11:57;9.38;;;4.65;;
21862;SDS011;11096;51.338;12.524;2023-04-06T08:14:23;8.65;;;4.60;;
21862;SDS011;11096;51.338;12.524;2023-04-06T08:16:49;6.65;;;4.45;;
21862;SDS011;11096;51.338;12.524;2023-04-06T08:19:14;8.25;;;4.30;;
21862;SDS011;11096;51.338;12.524;2023-04-06T08:21:42;6.18;;;4.10;;
21862;SDS011;11096;51.338;12.524;2023-04-06T08:24:08;7.78;;;4.47;;
21862;SDS011;11096;51.338;12.524;2023-04-06T08:26:34;6.60;;;4.70;;
21862;SDS011;11096;51.338;12.524;2023-04-06T08:28:59;8.70;;;4.45;;
21862;SDS011;11096;51.338;12.524;2023-04-06T08:31:25;6.38;;;4.65;;
21862;SDS011;11096;51.338;12.524;2023-04-06T08:33:51;8.02;;;4.65;;
21862;SDS011;11096;51.338;12.524;2023-04-06T08:36:16;6.55;;;5.03;;
21862;SDS011;11096;51.338;12.524;2023-04-06T08:38:45;7.65;;;5.05;;
21862;SDS011;11096;51.338;12.524;2023-04-06T08:41:11;9.07;;;5.10;;
21862;SDS011;11096;51.338;12.524;2023-04-06T08:43:42;5.85;;;4.20;;
21862;SDS011;11096;51.338;12.524;2023-04-06T08:46:09;6.32;;;4.70;;
21862;SDS011;11096;51.338;12.524;2023-04-06T08:48:36;7.60;;;5.03;;
21862;SDS011;11096;51.338;12.524;2023-04-06T08:51:03;6.32;;;4.68;;
21862;SDS011;11096;51.338;12.524;2023-04-06T08:53:29;8.27;;;4.30;;
21862;SDS011;11096;51.338;12.524;2023-04-06T08:55:55;8.07;;;4.03;;
21862;SDS011;11096;51.338;12.524;2023-04-06T08:58:22;6.80;;;4.20;;
21862;SDS011;11096;51.338;12.524;2023-04-06T09:00:50;7.85;;;4.93;;
21862;SDS011;11096;51.338;12.524;2023-04-06T09:03:17;6.97;;;4.40;;
21862;SDS011;11096;51.338;12.524;2023-04-06T09:05:45;6.85;;;3.90;;
21862;SDS011;11096;51.338;12.524;2023-04-06T09:08:12;7.28;;;3.88;;
21862;SDS011;11096;51.338;12.524;2023-04-06T09:10:40;6.93;;;4.28;;
21862;SDS011;11096;51.338;12.524;2023-04-06T09:13:06;7.10;;;4.50;;
21862;SDS011;11096;51.338;12.524;2023-04-06T09:15:33;8.95;;;4.22;;
21862;SDS011;11096;51.338;12.524;2023-04-06T09:17:59;6.45;;;3.80;;
21862;SDS011;11096;51.338;12.524;2023-04-06T09:20:25;6.40;;;4.22;;
21862;SDS011;11096;51.338;12.524;2023-04-06T09:22:52;6.72;;;4.13;;
21862;SDS011;11096;51.338;12.524;2023-04-06T09:25:18;7.18;;;4.65;;
21862;SDS011;11096;51.338;12.524;2023-04-06T09:27:46;5.75;;;3.65;;
21862;SDS011;11096;51.338;12.524;2023-04-06T09:30:11;8.63;;;4.47;;
21862;SDS011;11096;51.338;12.524;2023-04-06T09:32:48;5.70;;;3.42;;
21862;SDS011;11096;51.338;12.524;2023-04-06T09:35:15;4.95;;;3.58;;
21862;SDS011;11096;51.338;12.524;2023-04-06T09:37:43;5.93;;;3.80;;
21862;SDS011;11096;51.338;12.524;2023-04-06T09:40:09;5.63;;;3.88;;
21862;SDS011;11096;51.338;12.524;2023-04-06T09:42:35;6.07;;;3.95;;
21862;SDS011;11096;51.338;12.524;2023-04-06T09:45:03;7.22;;;4.18;;
21862;SDS011;11096;51.338;12.524;2023-04-06T09:47:32;6.57;;;3.80;;
21862;SDS011;11096;51.338;12.524;2023-04-06T09:50:00;7.90;;;3.58;;
21862;SDS011;11096;51.338;12.524;2023-04-06T09:52:32;6.45;;;4.05;;
21862;SDS011;11096;51.338;12.524;2023-04-06T09:55:03;7.05;;;4.47;;
21862;SDS011;11096;51.338;12.524;2023-04-06T09:57:35;5.35;;;4.45;;
21862;SDS011;11096;51.338;12.524;2023-04-06T10:00:07;7.90;;;4.45;;
21862;SDS011;11096;51.338;12.524;2023-04-06T10:02:47;7.72;;;4.20;;
21862;SDS011;11096;51.338;12.524;2023-04-06T10:05:52;7.68;;;4.18;;
21862;SDS011;11096;51.338;12.524;2023-04-06T10:08:26;5.88;;;4.40;;
21862;SDS011;11096;51.338;12.524;2023-04-06T10:10:53;7.43;;;4.22;;
21862;SDS011;11096;51.338;12.524;2023-04-06T10:13:20;4.97;;;4.30;;
21862;SDS011;11096;51.338;12.524;2023-04-06T10:15:45;5.60;;;4.10;;
21862;SDS011;11096;51.338;12.524;2023-04-06T10:18:11;5.88;;;4.65;;
21862;SDS011;11096;51.338;12.524;2023-04-06T10:23:13;6.10;;;3.42;;
21862;SDS011;11096;51.338;12.524;2023-04-06T10:25:52;4.47;;;3.65;;
21862;SDS011;11096;51.338;12.524;2023-04-06T10:28:22;4.82;;;4.07;;
21862;SDS011;11096;51.338;12.524;2023-04-06T10:30:48;5.03;;;3.30;;
21862;SDS011;11096;51.338;12.524;2023-04-06T10:33:18;4.95;;;3.10;;
21862;SDS011;11096;51.338;12.524;2023-04-06T10:35:45;4.88;;;3.10;;
21862;SDS011;11096;51.338;12.524;2023-04-06T10:38:11;4.57;;;3.33;;
21862;SDS011;11096;51.338;12.524;2023-04-06T10:40:40;7.53;;;3.45;;
21862;SDS011;11096;51.338;12.524;2023-04-06T10:45:56;4.97;;;3.22;;
21862;SDS011;11096;51.338;12.524;2023-04-06T10:48:24;4.57;;;2.97;;
21862;SDS011;11096;51.338;12.524;2023-04-06T10:50:51;4.57;;;3.42;;
21862;SDS011;11096;51.338;12.524;2023-04-06T10:53:21;5.18;;;3.10;;
21862;SDS011;11096;51.338;12.524;2023-04-06T10:55:46;4.13;;;3.25;;
21862;SDS011;11096;51.338;12.524;2023-04-06T10:58:15;3.58;;;2.90;;
21862;SDS011;11096;51.338;12.524;2023-04-06T11:00:47;3.97;;;2.90;;
21862;SDS011;11096;51.338;12.524;2023-04-06T11:03:14;3.58;;;2.75;;
21862;SDS011;11096;51.338;12.524;2023-04-06T11:05:49;3.78;;;2.83;;
21862;SDS011;11096;51.338;12.524;2023-04-06T11:08:25;4.57;;;3.08;;
21862;SDS011;11096;51.338;12.524;2023-04-06T11:11:11;4.80;;;3.28;;
21862;SDS011;11096;51.338;12.524;2023-04-06T11:13:48;3.72;;;2.67;;
21862;SDS011;11096;51.338;12.524;2023-04-06T11:16:15;5.85;;;3.15;;
21862;SDS011;11096;51.338;12.524;2023-04-06T11:21:15;4.38;;;2.97;;
21862;SDS011;11096;51.338;12.524;2023-04-06T11:23:40;3.38;;;2.55;;
21862;SDS011;11096;51.338;12.524;2023-04-06T11:26:09;6.57;;;2.97;;
21862;SDS011;11096;51.338;12.524;2023-04-06T11:28:41;4.78;;;3.38;;
21862;SDS011;11096;51.338;12.524;2023-04-06T11:31:10;5.20;;;3.53;;
21862;SDS011;11096;51.338;12.524;2023-04-06T11:33:39;6.05;;;3.45;;
21862;SDS011;11096;51.338;12.524;2023-04-06T11:36:05;5.95;;;3.22;;
21862;SDS011;11096;51.338;12.524;2023-04-06T11:38:31;3.88;;;3.08;;
21862;SDS011;11096;51.338;12.524;2023-04-06T11:40:57;4.68;;;3.58;;
21862;SDS011;11096;51.338;12.524;2023-04-06T11:43:27;5.70;;;3.63;;
21862;SDS011;11096;51.338;12.524;2023-04-06T11:46:02;4.63;;;3.05;;
21862;SDS011;11096;51.338;12.524;2023-04-06T11:48:29;4.32;;;2.60;;
21862;SDS011;11096;51.338;12.524;2023-04-06T11:50:59;4.05;;;2.85;;
21862;SDS011;11096;51.338;12.524;2023-04-06T11:53:26;4.30;;;2.80;;
21862;SDS011;11096;51.338;12.524;2023-04-06T11:55:52;4.95;;;2.45;;
21862;SDS011;11096;51.338;12.524;2023-04-06T11:58:18;6.43;;;2.70;;
21862;SDS011;11096;51.338;12.524;2023-04-06T12:00:44;6.15;;;2.80;;
21862;SDS011;11096;51.338;12.524;2023-04-06T12:03:13;2.95;;;2.30;;
21862;SDS011;11096;51.338;12.524;2023-04-06T12:05:39;3.58;;;2.95;;
21862;SDS011;11096;51.338;12.524;2023-04-06T12:08:04;3.97;;;2.83;;
21862;SDS011;11096;51.338;12.524;2023-04-06T12:10:30;3.55;;;2.70;;
21862;SDS011;11096;51.338;12.524;2023-04-06T12:12:56;3.80;;;2.80;;
21862;SDS011;11096;51.338;12.524;2023-04-06T12:15:21;3.88;;;2.58;;
21862;SDS011;11096;51.338;12.524;2023-04-06T12:17:47;3.30;;;2.75;;
21862;SDS011;11096;51.338;12.524;2023-04-06T12:20:13;2.85;;;2.50;;
21862;SDS011;11096;51.338;12.524;2023-04-06T12:22:38;4.10;;;2.85;;
21862;SDS011;11096;51.338;12.524;2023-04-06T12:25:04;4.35;;;3.05;;
21862;SDS011;11096;51.338;12.524;2023-04-06T12:27:32;4.32;;;2.60;;
21862;SDS011;11096;51.338;12.524;2023-04-06T12:29:57;3.67;;;2.72;;
21862;SDS011;11096;51.338;12.524;2023-04-06T12:32:23;5.50;;;3.03;;
21862;SDS011;11096;51.338;12.524;2023-04-06T12:34:48;3.15;;;2.75;;
21862;SDS011;11096;51.338;12.524;2023-04-06T12:37:15;3.35;;;2.45;;
21862;SDS011;11096;51.338;12.524;2023-04-06T12:39:41;5.28;;;3.10;;
21862;SDS011;11096;51.338;12.524;2023-04-06T12:42:09;4.18;;;3.22;;
21862;SDS011;11096;51.338;12.524;2023-04-06T12:44:35;4.50;;;3.20;;
21862;SDS011;11096;51.338;12.524;2023-04-06T12:47:00;5.72;;;3.25;;
21862;SDS011;11096;51.338;12.524;2023-04-06T12:49:26;5.35;;;2.85;;
21862;SDS011;11096;51.338;12.524;2023-04-06T12:51:51;4.13;;;2.83;;
21862;SDS011;11096;51.338;12.524;2023-04-06T12:54:17;5.13;;;3.17;;
21862;SDS011;11096;51.338;12.524;2023-04-06T12:56:42;6.57;;;3.28;;
21862;SDS011;11096;51.338;12.524;2023-04-06T12:59:08;3.25;;;2.67;;
21862;SDS011;11096;51.338;12.524;2023-04-06T13:01:33;3.70;;;3.10;;
21862;SDS011;11096;51.338;12.524;2023-04-06T13:03:59;5.70;;;2.90;;
21862;SDS011;11096;51.338;12.524;2023-04-06T13:06:24;3.08;;;2.78;;
21862;SDS011;11096;51.338;12.524;2023-04-06T13:08:52;4.65;;;3.13;;
21862;SDS011;11096;51.338;12.524;2023-04-06T13:11:18;7.65;;;3.05;;
21862;SDS011;11096;51.338;12.524;2023-04-06T13:13:45;5.05;;;3.08;;
21862;SDS011;11096;51.338;12.524;2023-04-06T13:16:11;5.47;;;2.83;;
21862;SDS011;11096;51.338;12.524;2023-04-06T13:18:36;3.95;;;2.88;;
21862;SDS011;11096;51.338;12.524;2023-04-06T13:21:03;3.45;;;2.60;;
21862;SDS011;11096;51.338;12.524;2023-04-06T13:23:30;5.45;;;2.97;;
21862;SDS011;11096;51.338;12.524;2023-04-06T13:25:59;3.38;;;2.80;;
21862;SDS011;11096;51.338;12.524;2023-04-06T13:28:28;3.30;;;2.88;;
21862;SDS011;11096;51.338;12.524;2023-04-06T13:30:55;4.65;;;3.08;;
21862;SDS011;11096;51.338;12.524;2023-04-06T13:33:22;3.90;;;3.28;;
21862;SDS011;11096;51.338;12.524;2023-04-06T13:35:48;5.38;;;3.63;;
21862;SDS011;11096;51.338;12.524;2023-04-06T13:38:13;3.47;;;3.17;;
21862;SDS011;11096;51.338;12.524;2023-04-06T13:40:40;4.30;;;3.10;;
21862;SDS011;11096;51.338;12.524;2023-04-06T13:43:06;3.85;;;3.25;;
21862;SDS011;11096;51.338;12.524;2023-04-06T13:45:32;4.90;;;3.25;;
21862;SDS011;11096;51.338;12.524;2023-04-06T13:47:58;6.07;;;3.55;;
21862;SDS011;11096;51.338;12.524;2023-04-06T13:50:26;5.40;;;3.60;;
21862;SDS011;11096;51.338;12.524;2023-04-06T13:52:52;4.22;;;3.45;;
21862;SDS011;11096;51.338;12.524;2023-04-06T13:55:18;4.03;;;3.25;;
21862;SDS011;11096;51.338;12.524;2023-04-06T13:57:43;5.68;;;3.47;;
21862;SDS011;11096;51.338;12.524;2023-04-06T14:00:09;5.35;;;3.67;;
21862;SDS011;11096;51.338;12.524;2023-04-06T14:02:36;5.93;;;3.38;;
21862;SDS011;11096;51.338;12.524;2023-04-06T14:05:02;6.75;;;3.28;;
21862;SDS011;11096;51.338;12.524;2023-04-06T14:07:28;5.72;;;2.80;;
21862;SDS011;11096;51.338;12.524;2023-04-06T14:09:53;3.95;;;3.05;;
21862;SDS011;11096;51.338;12.524;2023-04-06T14:12:19;4.68;;;3.47;;
21862;SDS011;11096;51.338;12.524;2023-04-06T14:14:44;5.35;;;3.42;;
21862;SDS011;11096;51.338;12.524;2023-04-06T14:17:10;5.13;;;3.90;;
21862;SDS011;11096;51.338;12.524;2023-04-06T14:19:35;4.15;;;3.60;;
21862;SDS011;11096;51.338;12.524;2023-04-06T14:22:01;5.18;;;3.50;;
21862;SDS011;11096;51.338;12.524;2023-04-06T14:24:26;6.18;;;3.95;;
21862;SDS011;11096;51.338;12.524;2023-04-06T14:26:52;5.72;;;3.70;;
21862;SDS011;11096;51.338;12.524;2023-04-06T14:29:18;4.70;;;3.38;;
21862;SDS011;11096;51.338;12.524;2023-04-06T14:31:45;5.32;;;3.25;;
21862;SDS011;11096;51.338;12.524;2023-04-06T14:34:11;5.53;;;3.63;;
21862;SDS011;11096;51.338;12.524;2023-04-06T14:36:37;7.40;;;4.80;;